createdAt,value
2019-03-16T00:00:05.582Z,98294.97
2019-03-16T00:02:35.042Z,98293.98
2019-03-16T00:05:04.993Z,98294.60
2019-03-16T00:07:34.406Z,98302.58
2019-03-16T00:10:03.769Z,98295.16
2019-03-16T00:12:33.033Z,98303.19
2019-03-16T00:15:02.457Z,98294.60
2019-03-16T00:17:31.962Z,98295.92
2019-03-16T00:20:01.461Z,98303.19
2019-03-16T00:22:31.085Z,98290.38
2019-03-16T00:25:00.680Z,98295.38
2019-03-16T00:27:30.144Z,98298.85
2019-03-16T00:29:59.631Z,98277.92
2019-03-16T00:32:29.200Z,98284.92
2019-03-16T00:34:58.788Z,98288.56
2019-03-16T00:37:28.125Z,98282.97
2019-03-16T00:39:57.542Z,98288.85
2019-03-16T00:42:26.940Z,98290.72
2019-03-16T00:44:56.503Z,98292.17
2019-03-16T00:47:26.017Z,98279.98
2019-03-16T00:49:55.332Z,98284.09
2019-03-16T00:52:24.484Z,98287.19
2019-03-16T00:54:53.787Z,98274.42
2019-03-16T00:57:23.345Z,98278.49
2019-03-16T00:59:52.973Z,98280.98
2019-03-16T01:02:27.352Z,98293.52
2019-03-16T01:04:53.895Z,98287.55
2019-03-16T01:07:23.126Z,98298.77
2019-03-16T01:09:52.648Z,98303.84
2019-03-16T01:12:22.100Z,98298.44
2019-03-16T01:14:51.427Z,98309.58
2019-03-16T01:17:21.066Z,98298.03
2019-03-16T01:19:50.582Z,98307.09
2019-03-16T01:22:20.539Z,98300.05
2019-03-16T01:24:50.110Z,98298.66
2019-03-16T01:27:19.283Z,98304.73
2019-03-16T01:29:48.773Z,98312.06
2019-03-16T01:32:17.920Z,98297.41
2019-03-16T01:34:47.542Z,98294.89
2019-03-16T01:37:16.943Z,98297.95
2019-03-16T01:39:46.191Z,98299.52
2019-03-16T01:42:15.542Z,98291.38
2019-03-16T01:44:44.900Z,98286.67
2019-03-16T01:47:14.294Z,98284.33
2019-03-16T01:49:43.752Z,98290.67
2019-03-16T01:52:13.954Z,98304.16
2019-03-16T01:54:43.723Z,98296.20
2019-03-16T01:57:13.128Z,98290.07
2019-03-16T01:59:42.623Z,98304.39
2019-03-16T02:02:12.117Z,98306.33
2019-03-16T02:04:41.587Z,98297.20
2019-03-16T02:07:10.955Z,98295.89
2019-03-16T02:09:40.699Z,98295.52
2019-03-16T02:12:09.994Z,98309.91
2019-03-16T02:14:39.598Z,98308.66
2019-03-16T02:17:09.422Z,98307.09
2019-03-16T02:19:38.745Z,98299.96
2019-03-16T02:22:08.188Z,98297.88
2019-03-16T02:24:37.774Z,98288.20
2019-03-16T02:27:07.398Z,98295.81
2019-03-16T02:29:36.689Z,98294.49
2019-03-16T02:32:05.921Z,98301.22
2019-03-16T02:34:35.062Z,98303.98
2019-03-16T02:37:04.245Z,98300.15
2019-03-16T02:39:33.563Z,98294.20
2019-03-16T02:42:02.995Z,98280.02
2019-03-16T02:44:32.345Z,98292.14
2019-03-16T02:47:01.884Z,98294.84
2019-03-16T02:49:31.084Z,98286.19
2019-03-16T02:52:00.356Z,98311.52
2019-03-16T02:54:29.701Z,98296.27
2019-03-16T02:56:58.939Z,98301.53
2019-03-16T02:59:28.113Z,98299.88
2019-03-16T03:01:57.347Z,98312.55
2019-03-16T03:04:26.623Z,98305.91
2019-03-16T03:06:55.889Z,98292.47
2019-03-16T03:09:25.030Z,98299.95
2019-03-16T03:11:54.187Z,98297.17
2019-03-16T03:14:23.358Z,98316.75
2019-03-16T03:16:52.531Z,98313.62
2019-03-16T03:19:21.775Z,98324.23
2019-03-16T03:21:50.947Z,98318.58
2019-03-16T03:24:20.189Z,98315.64
2019-03-16T03:26:49.394Z,98321.38
2019-03-16T03:29:18.799Z,98319.05
2019-03-16T03:31:47.970Z,98312.59
2019-03-16T03:34:17.353Z,98311.47
2019-03-16T03:36:46.594Z,98317.57
2019-03-16T03:39:15.881Z,98306.44
2019-03-16T03:41:45.045Z,98306.30
2019-03-16T03:44:14.628Z,98310.66
2019-03-16T03:46:44.318Z,98308.78
2019-03-16T03:49:13.704Z,98318.07
2019-03-16T03:51:43.400Z,98307.02
2019-03-16T03:54:12.892Z,98325.28
2019-03-16T03:56:42.373Z,98313.92
2019-03-16T03:59:12.072Z,98310.81
2019-03-16T04:01:41.587Z,98314.92
2019-03-16T04:04:15.858Z,98316.48
2019-03-16T04:06:42.883Z,98330.23
2019-03-16T04:09:12.476Z,98322.45
2019-03-16T04:11:41.868Z,98324.27
2019-03-16T04:14:11.719Z,98324.37
2019-03-16T04:16:41.538Z,98322.88
2019-03-16T04:19:11.374Z,98330.15
2019-03-16T04:21:41.344Z,98338.67
2019-03-16T04:24:11.293Z,98337.55
2019-03-16T04:26:40.905Z,98341.58
2019-03-16T04:29:10.840Z,98346.90
2019-03-16T04:31:40.362Z,98352.72
2019-03-16T04:34:09.903Z,98350.78
2019-03-16T04:36:39.512Z,98352.09
2019-03-16T04:39:09.111Z,98362.37
2019-03-16T04:41:38.257Z,98349.77
2019-03-16T04:44:07.528Z,98357.30
2019-03-16T04:46:36.707Z,98372.25
2019-03-16T04:49:06.434Z,98354.60
2019-03-16T04:51:35.570Z,98352.88
2019-03-16T04:54:04.867Z,98356.20
2019-03-16T04:56:34.321Z,98361.47
2019-03-16T04:59:03.589Z,98352.40
2019-03-16T05:01:32.958Z,98365.05
2019-03-16T05:04:02.689Z,98363.32
2019-03-16T05:06:31.999Z,98365.05
2019-03-16T05:09:01.380Z,98355.51
2019-03-16T05:11:30.526Z,98366.88
2019-03-16T05:13:59.692Z,98369.36
2019-03-16T05:16:28.830Z,98368.58
2019-03-16T05:18:58.012Z,98363.46
2019-03-16T05:21:27.137Z,98365.54
2019-03-16T05:23:56.353Z,98377.37
2019-03-16T05:26:25.593Z,98374.52
2019-03-16T05:28:54.792Z,98395.63
2019-03-16T05:31:23.993Z,98382.08
2019-03-16T05:33:53.209Z,98377.91
2019-03-16T05:36:22.471Z,98388.85
2019-03-16T05:38:51.937Z,98397.25
2019-03-16T05:41:21.131Z,98407.60
2019-03-16T05:43:50.280Z,98397.30
2019-03-16T05:46:19.457Z,98396.80
2019-03-16T05:48:48.662Z,98411.08
2019-03-16T05:51:17.920Z,98415.77
2019-03-16T05:53:47.143Z,98416.53
2019-03-16T05:56:16.706Z,98414.19
2019-03-16T05:58:46.445Z,98418.35
2019-03-16T06:01:15.942Z,98420.33
2019-03-16T06:03:45.842Z,98424.23
2019-03-16T06:06:15.415Z,98426.45
2019-03-16T06:08:45.121Z,98421.42
2019-03-16T06:11:15.152Z,98425.28
2019-03-16T06:13:46.976Z,98423.58
2019-03-16T06:16:17.074Z,98433.73
2019-03-16T06:18:47.479Z,98439.50
2019-03-16T06:21:17.834Z,98434.10
2019-03-16T06:23:47.475Z,98437.30
2019-03-16T06:26:17.322Z,98440.12
2019-03-16T06:28:46.792Z,98441.62
2019-03-16T06:31:16.702Z,98439.12
2019-03-16T06:33:46.213Z,98443.67
2019-03-16T06:36:15.903Z,98442.70
2019-03-16T06:38:45.580Z,98456.83
2019-03-16T06:41:16.160Z,98445.78
2019-03-16T06:43:45.670Z,98445.87
2019-03-16T06:46:15.448Z,98442.39
2019-03-16T06:48:45.006Z,98449.20
2019-03-16T06:51:15.062Z,98440.23
2019-03-16T06:53:45.198Z,98445.78
2019-03-16T06:56:14.750Z,98462.41
2019-03-16T06:58:44.844Z,98444.47
2019-03-16T07:01:14.410Z,98465.80
2019-03-16T07:03:46.677Z,98463.72
2019-03-16T07:06:16.307Z,98461.84
2019-03-16T07:08:46.074Z,98465.84
2019-03-16T07:11:15.754Z,98467.30
2019-03-16T07:13:47.190Z,98466.35
2019-03-16T07:16:17.669Z,98469.73
2019-03-16T07:18:58.289Z,98465.14
2019-03-16T07:21:20.820Z,98471.20
2019-03-16T07:23:51.665Z,98482.20
2019-03-16T07:26:22.276Z,98469.55
2019-03-16T07:28:52.924Z,98475.76
2019-03-16T07:31:24.293Z,98473.93
2019-03-16T07:33:55.074Z,98475.47
2019-03-16T07:36:25.454Z,98474.77
2019-03-16T07:38:56.746Z,98486.61
2019-03-16T07:41:27.412Z,98485.06
2019-03-16T07:43:57.825Z,98502.12
2019-03-16T07:46:28.717Z,98490.89
2019-03-16T07:48:59.146Z,98486.43
2019-03-16T07:51:29.691Z,98501.46
2019-03-16T07:54:00.380Z,98488.83
2019-03-16T07:56:31.148Z,98491.78
2019-03-16T07:59:01.709Z,98493.09
2019-03-16T08:01:33.264Z,98503.94
2019-03-16T08:04:03.347Z,98512.44
2019-03-16T08:06:34.155Z,98503.14
2019-03-16T08:09:05.757Z,98509.90
2019-03-16T08:11:36.034Z,98517.32
2019-03-16T08:14:06.494Z,98513.11
2019-03-16T08:16:37.079Z,98523.20
2019-03-16T08:19:07.356Z,98518.84
2019-03-16T08:21:37.736Z,98518.16
2019-03-16T08:24:08.419Z,98525.88
2019-03-16T08:26:39.042Z,98527.94
2019-03-16T08:29:09.603Z,98515.86
2019-03-16T08:31:40.286Z,98522.37
2019-03-16T08:34:10.955Z,98530.92
2019-03-16T08:36:41.944Z,98539.52
2019-03-16T08:39:12.484Z,98526.92
2019-03-16T08:41:43.370Z,98528.56
2019-03-16T08:44:14.262Z,98524.62
2019-03-16T08:46:44.839Z,98543.22
2019-03-16T08:49:15.540Z,98537.16
2019-03-16T08:51:46.140Z,98533.72
2019-03-16T08:54:17.021Z,98535.58
2019-03-16T08:56:47.813Z,98543.11
2019-03-16T08:59:18.408Z,98540.55
2019-03-16T09:01:48.803Z,98535.90
2019-03-16T09:04:18.847Z,98546.52
2019-03-16T09:06:49.454Z,98533.64
2019-03-16T09:09:19.810Z,98538.72
2019-03-16T09:11:50.876Z,98529.90
2019-03-16T09:14:21.879Z,98527.33
2019-03-16T09:16:52.477Z,98519.44
2019-03-16T09:19:23.084Z,98527.06
2019-03-16T09:21:53.552Z,98524.43
2019-03-16T09:24:25.328Z,98514.56
2019-03-16T09:26:56.517Z,98519.59
2019-03-16T09:29:26.475Z,98521.66
2019-03-16T09:31:57.178Z,98510.59
2019-03-16T09:34:28.000Z,98505.25
2019-03-16T09:36:58.360Z,98504.49
2019-03-16T09:39:28.889Z,98506.52
2019-03-16T09:41:59.635Z,98512.16
2019-03-16T09:44:30.220Z,98510.75
2019-03-16T09:47:01.088Z,98508.61
2019-03-16T09:49:31.796Z,98499.19
2019-03-16T09:52:02.684Z,98494.55
2019-03-16T09:54:33.507Z,98507.45
2019-03-16T09:57:04.165Z,98501.22
2019-03-16T09:59:34.581Z,98505.91
2019-03-16T10:02:05.543Z,98508.21
2019-03-16T10:04:36.062Z,98502.34
2019-03-16T10:07:06.789Z,98509.30
2019-03-16T10:09:37.278Z,98512.67
2019-03-16T10:12:08.306Z,98511.88
2019-03-16T10:14:38.466Z,98509.30
2019-03-16T10:17:09.207Z,98503.17
2019-03-16T10:19:40.078Z,98502.53
2019-03-16T10:22:10.884Z,98491.66
2019-03-16T10:24:41.675Z,98495.16
2019-03-16T10:27:12.828Z,98480.39
2019-03-16T10:29:43.269Z,98481.23
2019-03-16T10:32:14.307Z,98492.86
2019-03-16T10:34:45.033Z,98474.97
2019-03-16T10:37:15.452Z,98483.72
2019-03-16T10:39:45.920Z,98480.95
2019-03-16T10:42:16.659Z,98475.28
2019-03-16T10:44:47.304Z,98470.97
2019-03-16T10:47:17.963Z,98463.45
2019-03-16T10:49:48.934Z,98443.38
2019-03-16T10:52:19.522Z,98444.69
2019-03-16T10:54:50.124Z,98446.19
2019-03-16T10:57:21.079Z,98443.91
2019-03-16T10:59:54.625Z,98460.30
2019-03-16T11:02:25.363Z,98439.42
2019-03-16T11:04:55.976Z,98448.56
2019-03-16T11:07:26.492Z,98459.19
2019-03-16T11:10:00.449Z,98459.52
2019-03-16T11:12:31.228Z,98449.73
2019-03-16T11:15:01.912Z,98437.94
2019-03-16T11:17:32.676Z,98442.55
2019-03-16T11:20:04.025Z,98444.99
2019-03-16T11:22:34.879Z,98435.34
2019-03-16T11:25:06.622Z,98432.13
2019-03-16T11:27:37.248Z,98424.31
2019-03-16T11:30:09.145Z,98433.27
2019-03-16T11:32:42.537Z,98434.65
2019-03-16T11:35:13.345Z,98438.67
2019-03-16T11:37:43.828Z,98429.54
2019-03-16T11:40:14.900Z,98423.18
2019-03-16T11:42:45.699Z,98415.52
2019-03-16T11:45:17.687Z,98412.47
2019-03-16T11:47:47.998Z,98413.36
2019-03-16T11:50:18.836Z,98415.05
2019-03-16T11:52:49.212Z,98411.78
2019-03-16T11:55:20.356Z,98402.09
2019-03-16T11:57:50.735Z,98409.58
2019-03-16T12:00:23.093Z,98404.30
2019-03-16T12:02:53.596Z,98404.45
2019-03-16T12:05:24.120Z,98408.08
2019-03-16T12:07:54.769Z,98395.94
2019-03-16T12:10:25.421Z,98408.13
2019-03-16T12:12:56.066Z,98402.16
2019-03-16T12:15:27.300Z,98401.55
2019-03-16T12:17:57.982Z,98397.85
2019-03-16T12:20:28.632Z,98386.02
2019-03-16T12:22:59.289Z,98383.71
2019-03-16T12:25:30.259Z,98387.58
2019-03-16T12:28:00.818Z,98386.38
2019-03-16T12:30:31.393Z,98378.84
2019-03-16T12:33:02.125Z,98382.17
2019-03-16T12:35:32.861Z,98380.08
2019-03-16T12:38:03.783Z,98373.79
2019-03-16T12:40:34.584Z,98373.81
2019-03-16T12:43:05.353Z,98361.92
2019-03-16T12:45:36.293Z,98360.13
2019-03-16T12:48:07.123Z,98345.31
2019-03-16T12:50:37.961Z,98351.77
2019-03-16T12:53:08.745Z,98334.30
2019-03-16T12:55:39.544Z,98340.31
2019-03-16T12:58:10.411Z,98336.45
2019-03-16T13:00:41.509Z,98334.06
2019-03-16T13:03:12.658Z,98327.88
2019-03-16T13:05:43.426Z,98320.80
2019-03-16T13:08:14.692Z,98316.64
2019-03-16T13:10:45.131Z,98329.62
2019-03-16T13:13:16.113Z,98321.44
2019-03-16T13:15:46.646Z,98320.47
2019-03-16T13:18:17.268Z,98316.95
2019-03-16T13:20:47.570Z,98313.36
2019-03-16T13:23:18.497Z,98308.58
2019-03-16T13:25:49.389Z,98306.32
2019-03-16T13:28:19.972Z,98306.90
2019-03-16T13:30:50.490Z,98307.96
2019-03-16T13:33:20.853Z,98302.52
2019-03-16T13:35:51.346Z,98301.48
2019-03-16T13:38:22.073Z,98304.02
2019-03-16T13:40:52.215Z,98297.57
2019-03-16T13:43:22.651Z,98296.32
2019-03-16T13:45:54.320Z,98297.41
2019-03-16T13:48:25.108Z,98295.84
2019-03-16T13:50:55.487Z,98281.98
2019-03-16T13:53:26.258Z,98287.08
2019-03-16T13:55:57.021Z,98271.70
2019-03-16T13:58:27.209Z,98272.61
2019-03-16T14:00:57.968Z,98276.06
2019-03-16T14:03:28.882Z,98259.38
2019-03-16T14:05:59.953Z,98266.95
2019-03-16T14:08:30.571Z,98262.86
2019-03-16T14:11:01.218Z,98256.91
2019-03-16T14:13:32.022Z,98253.13
2019-03-16T14:16:02.643Z,98258.48
2019-03-16T14:18:33.241Z,98257.24
2019-03-16T14:21:04.235Z,98251.19
2019-03-16T14:23:34.652Z,98253.02
2019-03-16T14:26:05.516Z,98241.20
2019-03-16T14:28:36.120Z,98241.71
2019-03-16T14:31:06.908Z,98238.98
2019-03-16T14:33:37.596Z,98234.14
2019-03-16T14:36:08.937Z,98232.05
2019-03-16T14:38:40.613Z,98232.17
2019-03-16T14:41:11.756Z,98233.45
2019-03-16T14:43:42.756Z,98231.00
2019-03-16T14:46:14.592Z,98229.18
2019-03-16T14:48:45.233Z,98226.13
2019-03-16T14:51:16.634Z,98224.09
2019-03-16T14:53:47.104Z,98224.51
2019-03-16T14:56:18.166Z,98220.48
2019-03-16T14:58:48.825Z,98215.94
2019-03-16T15:01:19.948Z,98215.02
2019-03-16T15:03:50.166Z,98200.75
2019-03-16T15:06:20.704Z,98203.04
2019-03-16T15:08:51.102Z,98193.30
2019-03-16T15:11:21.751Z,98203.78
2019-03-16T15:13:52.255Z,98193.21
2019-03-16T15:16:22.845Z,98194.91
2019-03-16T15:18:53.115Z,98192.80
2019-03-16T15:21:23.840Z,98191.80
2019-03-16T15:23:54.654Z,98185.72
2019-03-16T15:26:25.321Z,98184.31
2019-03-16T15:28:55.919Z,98189.44
2019-03-16T15:31:26.685Z,98187.90
2019-03-16T15:33:57.141Z,98189.11
2019-03-16T15:36:28.273Z,98187.59
2019-03-16T15:38:58.743Z,98182.00
2019-03-16T15:41:29.402Z,98180.99
2019-03-16T15:43:59.681Z,98170.39
2019-03-16T15:46:30.391Z,98170.23
2019-03-16T15:49:00.801Z,98173.88
2019-03-16T15:51:31.811Z,98166.30
2019-03-16T15:54:02.102Z,98158.48
2019-03-16T15:56:33.411Z,98155.47
2019-03-16T15:59:03.986Z,98144.63
2019-03-16T16:01:34.690Z,98137.14
2019-03-16T16:04:05.324Z,98145.04
2019-03-16T16:06:36.295Z,98143.38
2019-03-16T16:09:08.271Z,98135.26
2019-03-16T16:11:39.391Z,98133.40
2019-03-16T16:14:10.229Z,98127.52
2019-03-16T16:16:42.450Z,98119.88
2019-03-16T16:19:14.622Z,98117.23
2019-03-16T16:21:45.320Z,98120.08
2019-03-16T16:24:16.302Z,98110.55
2019-03-16T16:26:46.650Z,98101.82
2019-03-16T16:29:17.622Z,98107.98
2019-03-16T16:31:48.227Z,98097.45
2019-03-16T16:34:18.741Z,98100.23
2019-03-16T16:36:49.123Z,98100.47
2019-03-16T16:39:19.839Z,98097.42
2019-03-16T16:41:50.297Z,98094.22
2019-03-16T16:44:21.117Z,98099.02
2019-03-16T16:46:51.831Z,98083.60
2019-03-16T16:49:22.849Z,98082.26
2019-03-16T16:51:53.214Z,98081.23
2019-03-16T16:54:23.634Z,98076.59
2019-03-16T16:56:54.142Z,98067.55
2019-03-16T16:59:24.760Z,98066.30
2019-03-16T17:01:55.179Z,98061.09
2019-03-16T17:04:25.283Z,98066.53
2019-03-16T17:06:55.877Z,98073.09
2019-03-16T17:09:26.560Z,98068.91
2019-03-16T17:11:57.283Z,98067.59
2019-03-16T17:14:27.714Z,98068.23
2019-03-16T17:16:58.739Z,98070.03
2019-03-16T17:19:32.900Z,98066.63
2019-03-16T17:22:03.638Z,98064.18
2019-03-16T17:24:34.474Z,98057.66
2019-03-16T17:27:05.155Z,98053.69
2019-03-16T17:29:36.111Z,98046.52
2019-03-16T17:32:06.808Z,98044.00
2019-03-16T17:34:37.448Z,98043.83
2019-03-16T17:37:08.325Z,98042.16
2019-03-16T17:39:38.735Z,98040.08
2019-03-16T17:42:09.650Z,98044.47
2019-03-16T17:44:40.261Z,98039.09
2019-03-16T17:47:11.273Z,98046.67
2019-03-16T17:49:42.215Z,98046.23
2019-03-16T17:52:13.314Z,98048.81
2019-03-16T17:54:44.381Z,98047.11
2019-03-16T17:57:15.152Z,98048.91
2019-03-16T17:59:45.694Z,98048.38
2019-03-16T18:02:15.932Z,98051.22
2019-03-16T18:04:46.681Z,98051.92
2019-03-16T18:07:17.933Z,98033.72
2019-03-16T18:09:48.570Z,98032.95
2019-03-16T18:12:19.000Z,98038.35
2019-03-16T18:14:49.427Z,98039.74
2019-03-16T18:17:20.205Z,98032.41
2019-03-16T18:19:50.598Z,98037.05
2019-03-16T18:22:21.269Z,98041.73
2019-03-16T18:24:52.109Z,98031.70
2019-03-16T18:27:22.628Z,98031.29
2019-03-16T18:29:53.672Z,98035.70
2019-03-16T18:32:24.201Z,98040.27
2019-03-16T18:34:54.511Z,98037.04
2019-03-16T18:37:24.834Z,98040.75
2019-03-16T18:39:55.468Z,98040.47
2019-03-16T18:42:27.881Z,98035.14
2019-03-16T18:44:58.860Z,98027.55
2019-03-16T18:47:29.559Z,98036.98
2019-03-16T18:50:00.017Z,98026.77
2019-03-16T18:52:30.613Z,98023.49
2019-03-16T18:55:01.211Z,98028.27
2019-03-16T18:57:31.664Z,98014.75
2019-03-16T19:00:02.006Z,98023.69
2019-03-16T19:02:32.903Z,98017.45
2019-03-16T19:05:03.248Z,98014.02
2019-03-16T19:07:34.026Z,98016.33
2019-03-16T19:10:05.168Z,98009.58
2019-03-16T19:12:36.099Z,98011.02
2019-03-16T19:15:09.197Z,98008.20
2019-03-16T19:17:40.577Z,98002.26
2019-03-16T19:20:13.187Z,98004.68
2019-03-16T19:22:44.658Z,98004.01
2019-03-16T19:25:15.824Z,98003.10
2019-03-16T19:27:46.843Z,97995.54
2019-03-16T19:30:17.730Z,97997.69
2019-03-16T19:32:48.301Z,97997.01
2019-03-16T19:35:19.302Z,97995.97
2019-03-16T19:37:49.816Z,97986.36
2019-03-16T19:40:21.834Z,97981.48
2019-03-16T19:42:52.331Z,97974.21
2019-03-16T19:45:23.013Z,97970.75
2019-03-16T19:47:53.525Z,97967.94
2019-03-16T19:50:23.859Z,97957.36
2019-03-16T19:52:57.365Z,97960.28
2019-03-16T19:55:27.908Z,97970.29
2019-03-16T19:57:58.494Z,97964.11
2019-03-16T20:00:28.803Z,97961.39
2019-03-16T20:02:59.218Z,97964.95
2019-03-16T20:05:30.088Z,97952.84
2019-03-16T20:08:03.817Z,97958.20
2019-03-16T20:10:34.411Z,97955.72
2019-03-16T20:13:05.068Z,97957.83
2019-03-16T20:15:35.878Z,97952.26
2019-03-16T20:18:06.791Z,97949.30
2019-03-16T20:20:37.290Z,97947.10
2019-03-16T20:23:07.881Z,97942.86
2019-03-16T20:25:38.977Z,97946.62
2019-03-16T20:28:09.860Z,97933.78
2019-03-16T20:30:40.943Z,97945.34
2019-03-16T20:33:12.119Z,97941.66
2019-03-16T20:35:43.790Z,97939.06
2019-03-16T20:38:15.107Z,97938.84
2019-03-16T20:40:45.647Z,97944.39
2019-03-16T20:43:16.540Z,97935.75
2019-03-16T20:45:48.125Z,97939.12
2019-03-16T20:48:19.211Z,97934.02
2019-03-16T20:50:49.825Z,97938.67
2019-03-16T20:53:20.461Z,97936.65
2019-03-16T20:55:51.224Z,97935.09
2019-03-16T20:58:21.479Z,97937.23
2019-03-16T21:00:52.023Z,97933.66
2019-03-16T21:03:22.348Z,97927.26
2019-03-16T21:05:52.969Z,97928.57
2019-03-16T21:08:23.496Z,97931.05
2019-03-16T21:10:53.911Z,97933.08
2019-03-16T21:13:24.463Z,97929.66
2019-03-16T21:15:55.146Z,97928.82
2019-03-16T21:18:25.711Z,97931.05
2019-03-16T21:20:56.248Z,97935.50
2019-03-16T21:23:26.793Z,97931.36
2019-03-16T21:25:57.632Z,97926.94
2019-03-16T21:28:27.962Z,97929.20
2019-03-16T21:30:58.643Z,97926.11
2019-03-16T21:33:30.054Z,97926.08
2019-03-16T21:36:01.524Z,97926.52
2019-03-16T21:38:32.648Z,97922.17
2019-03-16T21:41:03.351Z,97928.78
2019-03-16T21:43:34.072Z,97923.08
2019-03-16T21:46:05.604Z,97917.70
2019-03-16T21:48:36.279Z,97917.41
2019-03-16T21:51:06.957Z,97913.71
2019-03-16T21:53:37.618Z,97916.17
2019-03-16T21:56:08.264Z,97908.36
2019-03-16T21:58:38.756Z,97914.58
2019-03-16T22:02:42.703Z,97896.75
2019-03-16T22:05:12.817Z,97895.68
2019-03-16T22:07:45.148Z,97890.27
2019-03-16T22:10:15.982Z,97892.64
2019-03-16T22:12:46.974Z,97889.69
2019-03-16T22:15:17.479Z,97889.22
2019-03-16T22:17:48.599Z,97884.56
2019-03-16T22:20:18.882Z,97884.64
2019-03-16T22:22:49.419Z,97884.91
2019-03-16T22:25:19.787Z,97877.11
2019-03-16T22:27:51.667Z,97875.50
2019-03-16T22:30:22.689Z,97876.20
2019-03-16T22:32:54.104Z,97874.77
2019-03-16T22:35:25.727Z,97860.00
2019-03-16T22:37:56.448Z,97867.49
2019-03-16T22:40:26.787Z,97859.13
2019-03-16T22:42:57.137Z,97857.80
2019-03-16T22:45:27.703Z,97858.58
2019-03-16T22:47:58.382Z,97861.13
2019-03-16T22:50:29.027Z,97867.40
2019-03-16T22:52:59.698Z,97866.40
2019-03-16T22:55:30.683Z,97860.88
2019-03-16T22:58:01.615Z,97851.84
2019-03-16T23:00:43.368Z,97855.97
2019-03-16T23:03:14.300Z,97845.62
2019-03-16T23:05:46.736Z,97841.97
2019-03-16T23:08:21.563Z,97841.16
2019-03-16T23:10:53.357Z,97839.80
2019-03-16T23:13:25.220Z,97830.05
2019-03-16T23:15:54.693Z,97825.16
2019-03-16T23:18:25.252Z,97824.03
2019-03-16T23:20:58.513Z,97822.06
2019-03-16T23:23:28.893Z,97819.11
2019-03-16T23:25:59.902Z,97810.94
2019-03-16T23:28:30.491Z,97815.91
2019-03-16T23:31:01.541Z,97806.21
2019-03-16T23:33:32.085Z,97800.75
2019-03-16T23:36:02.995Z,97797.59
2019-03-16T23:38:33.806Z,97793.23
2019-03-16T23:41:04.610Z,97785.42
2019-03-16T23:43:35.455Z,97774.42
2019-03-16T23:46:06.532Z,97772.28
2019-03-16T23:48:37.608Z,97772.86
2019-03-16T23:51:09.638Z,97764.88
2019-03-16T23:53:41.122Z,97763.01
2019-03-16T23:56:12.799Z,97761.78
2019-03-16T23:58:43.821Z,97759.44
